createdAt,value
2022-09-10T00:04:28.967Z,9.00
2022-09-10T00:09:22.627Z,13.95
2022-09-10T00:14:21.885Z,10.00
2022-09-10T00:19:15.619Z,8.88
2022-09-10T00:24:09.657Z,5.88
2022-09-10T00:29:03.906Z,8.00
2022-09-10T00:33:57.654Z,8.38
2022-09-10T00:38:52.166Z,7.38
2022-09-10T00:44:03.437Z,19.60
2022-09-10T00:48:58.826Z,7.00
2022-09-10T00:53:52.918Z,10.52
2022-09-10T00:58:48.200Z,6.82
2022-09-10T01:03:41.764Z,7.63
2022-09-10T01:08:35.165Z,8.60
2022-09-10T01:13:59.468Z,9.25
2022-09-10T01:19:22.074Z,8.70
2022-09-10T01:24:43.092Z,13.05
2022-09-10T01:30:09.914Z,9.30
2022-09-10T01:35:25.751Z,9.10
2022-09-10T01:40:19.672Z,7.95
2022-09-10T01:45:15.315Z,6.30
2022-09-10T01:50:15.315Z,9.20
2022-09-10T01:55:51.220Z,8.50
2022-09-10T02:00:49.727Z,9.63
2022-09-10T02:05:45.332Z,7.72
2022-09-10T02:10:53.114Z,12.57
2022-09-10T02:20:52.888Z,9.93
2022-09-10T02:25:49.040Z,9.75
2022-09-10T02:30:42.559Z,14.52
2022-09-10T02:35:36.349Z,13.32
2022-09-10T02:40:32.345Z,12.35
2022-09-10T02:45:26.380Z,12.27
2022-09-10T02:50:24.824Z,11.05
2022-09-10T02:55:20.824Z,6.65
2022-09-10T03:00:15.156Z,7.35
2022-09-10T03:05:11.409Z,8.05
2022-09-10T03:10:06.522Z,11.63
2022-09-10T03:15:01.319Z,7.00
2022-09-10T03:19:55.356Z,9.07
2022-09-10T03:24:49.014Z,7.18
2022-09-10T03:29:44.053Z,11.48
2022-09-10T03:34:38.771Z,7.22
2022-09-10T03:39:32.319Z,5.88
2022-09-10T03:44:25.726Z,5.40
2022-09-10T03:49:19.383Z,8.05
2022-09-10T03:54:14.446Z,6.55
2022-09-10T03:59:09.127Z,5.50
2022-09-10T04:04:03.766Z,6.72
2022-09-10T04:08:57.875Z,7.38
2022-09-10T04:13:52.211Z,4.63
2022-09-10T04:18:45.984Z,6.30
2022-09-10T04:23:42.749Z,7.55
2022-09-10T04:28:36.923Z,9.57
2022-09-10T04:33:30.938Z,7.40
2022-09-10T04:38:25.852Z,14.70
2022-09-10T04:43:21.144Z,11.77
2022-09-10T04:48:15.123Z,16.30
2022-09-10T04:53:08.579Z,15.15
2022-09-10T04:58:03.364Z,9.05
2022-09-10T05:02:57.875Z,11.20
2022-09-10T05:07:54.050Z,12.07
2022-09-10T05:12:48.697Z,8.23
2022-09-10T05:17:42.232Z,10.50
2022-09-10T05:22:40.507Z,13.32
2022-09-10T05:27:34.966Z,10.15
2022-09-10T05:32:29.751Z,7.30
2022-09-10T05:37:24.182Z,6.05
2022-09-10T05:42:19.535Z,5.35
2022-09-10T05:47:12.915Z,6.32
2022-09-10T05:52:06.973Z,7.03
2022-09-10T05:57:01.567Z,7.82
2022-09-10T06:01:57.878Z,12.68
2022-09-10T06:06:52.630Z,10.25
2022-09-10T06:11:49.812Z,12.07
2022-09-10T06:16:44.934Z,15.17
2022-09-10T06:21:39.923Z,9.15
2022-09-10T06:26:33.852Z,8.88
2022-09-10T06:36:29.230Z,10.73
2022-09-10T06:41:23.763Z,13.32
2022-09-10T06:47:02.267Z,10.60
2022-09-10T06:51:37.843Z,12.30
2022-09-10T06:56:31.815Z,13.20
2022-09-10T07:01:27.461Z,8.85
2022-09-10T07:06:26.678Z,24.20
2022-09-10T07:11:26.835Z,11.93
2022-09-10T07:16:24.072Z,14.73
2022-09-10T07:21:20.372Z,17.08
2022-09-10T07:26:15.988Z,15.50
2022-09-10T07:31:18.727Z,13.10
2022-09-10T07:36:15.040Z,16.00
2022-09-10T07:41:12.088Z,18.73
2022-09-10T07:46:13.207Z,13.52
2022-09-10T07:51:13.878Z,11.00
2022-09-10T07:56:09.904Z,18.00
2022-09-10T08:01:09.219Z,12.25
2022-09-10T08:06:10.003Z,15.85
2022-09-10T08:11:20.404Z,15.38
2022-09-10T08:16:23.986Z,15.95
2022-09-10T08:21:19.991Z,15.85
2022-09-10T08:26:14.361Z,14.73
2022-09-10T08:31:13.118Z,12.98
2022-09-10T08:36:57.722Z,11.15
2022-09-10T08:41:59.798Z,9.55
2022-09-10T08:46:57.990Z,8.63
2022-09-10T08:51:58.801Z,11.63
2022-09-10T08:56:53.876Z,4.55
2022-09-10T09:01:57.922Z,5.97
2022-09-10T09:12:02.852Z,7.50
2022-09-10T09:17:17.586Z,2.90
2022-09-10T09:22:46.325Z,5.40
2022-09-10T09:27:43.222Z,4.45
2022-09-10T09:32:40.804Z,4.25
2022-09-10T09:37:37.036Z,4.13
2022-09-10T09:43:09.114Z,9.70
2022-09-10T09:48:03.357Z,10.50
2022-09-10T09:52:58.944Z,3.95
2022-09-10T09:58:30.146Z,5.78
2022-09-10T10:03:27.892Z,8.90
2022-09-10T10:08:38.596Z,6.60
2022-09-10T10:13:58.740Z,6.45
2022-09-10T10:18:52.960Z,3.15
2022-09-10T10:23:47.387Z,9.57
2022-09-10T10:28:45.730Z,5.32
2022-09-10T10:34:06.456Z,3.92
2022-09-10T10:39:20.244Z,5.05
2022-09-10T10:45:08.420Z,6.90
2022-09-10T10:50:20.963Z,8.60
2022-09-10T10:55:26.650Z,4.78
2022-09-10T11:00:21.673Z,8.93
2022-09-10T11:05:38.938Z,7.80
2022-09-10T11:10:43.608Z,5.30
2022-09-10T11:15:53.054Z,4.30
2022-09-10T11:21:09.307Z,6.45
2022-09-10T11:26:08.403Z,5.93
2022-09-10T11:31:16.885Z,5.32
2022-09-10T11:36:53.072Z,3.92
2022-09-10T11:42:06.828Z,4.13
2022-09-10T11:47:11.641Z,9.85
2022-09-10T11:52:06.206Z,5.55
2022-09-10T11:57:07.446Z,8.68
2022-09-10T12:02:48.233Z,6.75
2022-09-10T12:07:49.742Z,3.63
2022-09-10T12:12:45.080Z,5.90
2022-09-10T12:17:42.263Z,5.28
2022-09-10T12:22:42.810Z,8.85
2022-09-10T12:27:52.547Z,4.95
2022-09-10T12:32:46.779Z,5.70
2022-09-10T12:37:39.955Z,3.65
2022-09-10T12:42:33.807Z,5.53
2022-09-10T12:47:34.488Z,4.35
2022-09-10T12:52:49.683Z,4.30
2022-09-10T12:58:17.544Z,1.93
2022-09-10T13:03:19.238Z,4.10
2022-09-10T13:08:23.761Z,5.35
2022-09-10T13:13:41.132Z,5.57
2022-09-10T13:18:37.215Z,4.25
2022-09-10T13:24:11.415Z,5.05
2022-09-10T13:29:11.325Z,8.80
2022-09-10T13:34:16.729Z,3.95
2022-09-10T13:39:27.732Z,6.57
2022-09-10T13:44:29.393Z,3.55
2022-09-10T13:49:49.473Z,4.65
2022-09-10T13:54:47.717Z,6.78
2022-09-10T13:59:42.617Z,6.43
2022-09-10T14:04:39.841Z,5.18
2022-09-10T14:09:35.495Z,5.80
2022-09-10T14:14:31.096Z,3.15
2022-09-10T14:19:25.616Z,3.90
2022-09-10T14:24:40.475Z,6.10
2022-09-10T14:29:37.503Z,2.42
2022-09-10T14:34:36.570Z,4.22
2022-09-10T14:39:30.829Z,2.28
2022-09-10T14:44:23.685Z,4.15
2022-09-10T14:49:18.585Z,2.40
2022-09-10T14:54:13.757Z,7.05
2022-09-10T14:59:32.000Z,4.05
2022-09-10T15:04:30.327Z,6.53
2022-09-10T15:09:24.888Z,3.78
2022-09-10T15:14:18.516Z,4.32
2022-09-10T15:19:12.507Z,6.20
2022-09-10T15:24:07.752Z,4.22
2022-09-10T15:29:01.781Z,3.95
2022-09-10T15:33:56.569Z,4.97
2022-09-10T15:38:53.338Z,4.30
2022-09-10T15:43:47.131Z,8.27
2022-09-10T15:48:40.477Z,8.50
2022-09-10T15:53:35.100Z,2.97
2022-09-10T15:58:29.796Z,3.50
2022-09-10T16:03:23.834Z,3.50
2022-09-10T16:08:18.331Z,6.85
2022-09-10T16:13:12.920Z,7.45
2022-09-10T16:18:07.237Z,2.95
2022-09-10T16:23:01.541Z,1.98
2022-09-10T16:27:54.740Z,7.13
2022-09-10T16:32:49.368Z,4.00
2022-09-10T16:37:42.404Z,5.03
2022-09-10T16:42:36.011Z,3.45
2022-09-10T16:47:30.399Z,4.85
2022-09-10T16:52:25.208Z,7.15
2022-09-10T16:57:20.572Z,3.80
2022-09-10T17:02:14.621Z,6.43
2022-09-10T17:07:08.469Z,8.18
2022-09-10T17:12:03.188Z,2.65
2022-09-10T17:16:57.112Z,4.15
2022-09-10T17:21:53.561Z,4.45
2022-09-10T17:26:46.885Z,2.90
2022-09-10T17:31:44.547Z,4.93
2022-09-10T17:36:38.315Z,4.35
2022-09-10T17:41:36.794Z,5.53
2022-09-10T17:46:32.048Z,6.32
2022-09-10T17:51:29.527Z,7.40
2022-09-10T17:56:24.347Z,6.97
2022-09-10T18:01:24.741Z,7.28
2022-09-10T18:06:19.170Z,4.75
2022-09-10T18:11:20.312Z,4.53
2022-09-10T18:16:16.829Z,8.80
2022-09-10T18:21:20.322Z,7.03
2022-09-10T18:26:24.647Z,7.50
2022-09-10T18:31:30.592Z,3.63
2022-09-10T18:36:33.095Z,3.17
2022-09-10T18:41:40.780Z,3.97
2022-09-10T18:46:42.453Z,10.00
2022-09-10T18:51:50.128Z,13.95
2022-09-10T18:56:53.679Z,14.73
2022-09-10T19:02:00.529Z,11.02
2022-09-10T19:07:06.115Z,8.98
2022-09-10T19:12:14.393Z,18.10
2022-09-10T19:17:16.659Z,6.75
2022-09-10T19:22:13.900Z,10.25
2022-09-10T19:27:14.029Z,7.05
2022-09-10T19:32:18.309Z,11.35
2022-09-10T19:37:21.629Z,6.95
2022-09-10T19:42:24.112Z,5.50
2022-09-10T19:47:28.665Z,5.57
2022-09-10T19:52:36.510Z,8.48
2022-09-10T19:57:42.718Z,7.47
2022-09-10T20:02:44.984Z,6.65
2022-09-10T20:07:48.976Z,4.95
2022-09-10T20:12:53.977Z,4.78
2022-09-10T20:17:54.634Z,8.25
2022-09-10T20:23:00.497Z,8.13
2022-09-10T20:28:03.157Z,8.57
2022-09-10T20:33:06.671Z,10.07
2022-09-10T20:38:12.245Z,5.47
2022-09-10T20:43:05.911Z,5.32
2022-09-10T20:48:05.052Z,7.72
2022-09-10T20:52:59.933Z,9.65
2022-09-10T20:57:54.781Z,7.55
2022-09-10T21:02:48.247Z,4.65
2022-09-10T21:07:42.576Z,10.98
2022-09-10T21:12:36.027Z,13.10
2022-09-10T21:17:31.765Z,6.13
2022-09-10T21:22:25.724Z,5.80
2022-09-10T21:27:19.767Z,6.45
2022-09-10T21:32:13.835Z,8.65
2022-09-10T21:37:07.012Z,7.82
2022-09-10T21:42:00.788Z,6.15
2022-09-10T21:46:54.868Z,6.38
2022-09-10T21:51:49.181Z,6.75
2022-09-10T21:56:44.660Z,6.38
2022-09-10T22:01:38.234Z,9.18
2022-09-10T22:06:38.928Z,5.82
2022-09-10T22:11:36.246Z,3.88
2022-09-10T22:16:32.054Z,7.03
2022-09-10T22:21:26.205Z,5.00
2022-09-10T22:26:22.350Z,7.65
2022-09-10T22:31:19.800Z,3.28
2022-09-10T22:36:32.416Z,6.15
2022-09-10T22:41:26.233Z,6.05
2022-09-10T22:46:21.110Z,9.98
2022-09-10T22:51:20.523Z,7.38
2022-09-10T22:56:18.739Z,5.13
2022-09-10T23:01:18.969Z,2.83
2022-09-10T23:06:34.107Z,3.67
2022-09-10T23:11:30.485Z,2.28
2022-09-10T23:16:25.269Z,6.70
2022-09-10T23:21:20.379Z,3.95
2022-09-10T23:26:14.675Z,6.55
2022-09-10T23:31:13.914Z,5.50
2022-09-10T23:36:09.744Z,5.80
2022-09-10T23:41:03.636Z,5.93
2022-09-10T23:46:03.255Z,6.00
2022-09-10T23:50:58.102Z,7.57
2022-09-10T23:55:54.226Z,8.02
